sensor_id;sensor_type;location;lat;lon;timestamp;temperature;humidity
51613;DHT22;37694;51.748;14.326;2023-04-01T00:02:02;23.40;43.40
51613;DHT22;37694;51.748;14.326;2023-04-01T00:04:28;23.40;43.30
51613;DHT22;37694;51.748;14.326;2023-04-01T00:06:54;23.40;43.30
51613;DHT22;37694;51.748;14.326;2023-04-01T00:09:19;23.40;43.30
51613;DHT22;37694;51.748;14.326;2023-04-01T00:11:45;23.40;43.40
51613;DHT22;37694;51.748;14.326;2023-04-01T00:14:11;23.30;43.30
51613;DHT22;37694;51.748;14.326;2023-04-01T00:16:37;23.30;43.30
51613;DHT22;37694;51.748;14.326;2023-04-01T00:19:02;23.30;43.30
51613;DHT22;37694;51.748;14.326;2023-04-01T00:21:28;23.30;43.30
51613;DHT22;37694;51.748;14.326;2023-04-01T00:23:54;23.30;43.20
51613;DHT22;37694;51.748;14.326;2023-04-01T00:26:20;23.30;43.20
51613;DHT22;37694;51.748;14.326;2023-04-01T00:28:47;23.30;43.20
51613;DHT22;37694;51.748;14.326;2023-04-01T00:31:13;23.30;43.20
51613;DHT22;37694;51.748;14.326;2023-04-01T00:33:40;23.30;43.10
51613;DHT22;37694;51.748;14.326;2023-04-01T00:36:14;23.30;43.10
51613;DHT22;37694;51.748;14.326;2023-04-01T00:38:40;23.30;43.10
51613;DHT22;37694;51.748;14.326;2023-04-01T00:41:08;23.30;43.10
51613;DHT22;37694;51.748;14.326;2023-04-01T00:43:34;23.30;43.10
51613;DHT22;37694;51.748;14.326;2023-04-01T00:46:01;23.20;43.10
51613;DHT22;37694;51.748;14.326;2023-04-01T00:48:30;23.20;43.90
51613;DHT22;37694;51.748;14.326;2023-04-01T00:51:16;23.20;43.10
51613;DHT22;37694;51.748;14.326;2023-04-01T00:53:45;23.20;43.00
51613;DHT22;37694;51.748;14.326;2023-04-01T00:56:35;23.20;43.10
51613;DHT22;37694;51.748;14.326;2023-04-01T00:59:06;23.20;43.00
51613;DHT22;37694;51.748;14.326;2023-04-01T01:01:35;23.20;43.10
51613;DHT22;37694;51.748;14.326;2023-04-01T01:04:01;23.10;43.10
51613;DHT22;37694;51.748;14.326;2023-04-01T01:11:50;23.10;42.90
51613;DHT22;37694;51.748;14.326;2023-04-01T01:16:51;23.10;43.00
51613;DHT22;37694;51.748;14.326;2023-04-01T01:27:38;23.10;43.00
51613;DHT22;37694;51.748;14.326;2023-04-01T01:35:40;23.00;43.10
51613;DHT22;37694;51.748;14.326;2023-04-01T01:38:18;23.00;43.00
51613;DHT22;37694;51.748;14.326;2023-04-01T01:40:48;23.00;43.00
51613;DHT22;37694;51.748;14.326;2023-04-01T01:43:16;23.00;43.00
51613;DHT22;37694;51.748;14.326;2023-04-01T01:45:47;23.00;43.00
51613;DHT22;37694;51.748;14.326;2023-04-01T01:48:14;23.00;42.90
51613;DHT22;37694;51.748;14.326;2023-04-01T01:50:41;23.00;43.00
51613;DHT22;37694;51.748;14.326;2023-04-01T01:53:10;23.00;43.00
51613;DHT22;37694;51.748;14.326;2023-04-01T01:55:42;23.00;42.80
51613;DHT22;37694;51.748;14.326;2023-04-01T02:00:37;23.00;42.80
51613;DHT22;37694;51.748;14.326;2023-04-01T02:03:05;23.00;42.90
51613;DHT22;37694;51.748;14.326;2023-04-01T02:05:31;23.00;42.90
51613;DHT22;37694;51.748;14.326;2023-04-01T02:08:07;23.00;42.80
51613;DHT22;37694;51.748;14.326;2023-04-01T02:10:36;23.00;42.80
51613;DHT22;37694;51.748;14.326;2023-04-01T02:13:07;23.00;42.80
51613;DHT22;37694;51.748;14.326;2023-04-01T02:15:37;23.00;42.80
51613;DHT22;37694;51.748;14.326;2023-04-01T02:18:06;23.00;42.80
51613;DHT22;37694;51.748;14.326;2023-04-01T02:20:32;23.00;42.80
51613;DHT22;37694;51.748;14.326;2023-04-01T02:22:59;22.90;42.80
51613;DHT22;37694;51.748;14.326;2023-04-01T02:25:30;22.90;42.80
51613;DHT22;37694;51.748;14.326;2023-04-01T02:28:00;22.90;42.70
51613;DHT22;37694;51.748;14.326;2023-04-01T02:30:29;22.90;42.80
51613;DHT22;37694;51.748;14.326;2023-04-01T02:32:58;22.90;42.80
51613;DHT22;37694;51.748;14.326;2023-04-01T02:35:25;22.90;42.80
51613;DHT22;37694;51.748;14.326;2023-04-01T02:37:52;22.90;42.70
51613;DHT22;37694;51.748;14.326;2023-04-01T02:40:19;22.90;42.70
51613;DHT22;37694;51.748;14.326;2023-04-01T02:42:45;22.90;42.80
51613;DHT22;37694;51.748;14.326;2023-04-01T02:45:12;22.90;42.70
51613;DHT22;37694;51.748;14.326;2023-04-01T02:47:38;22.90;42.80
51613;DHT22;37694;51.748;14.326;2023-04-01T02:50:05;22.90;42.70
51613;DHT22;37694;51.748;14.326;2023-04-01T02:52:31;22.90;42.80
51613;DHT22;37694;51.748;14.326;2023-04-01T02:54:57;22.90;42.80
51613;DHT22;37694;51.748;14.326;2023-04-01T02:57:23;22.90;42.80
51613;DHT22;37694;51.748;14.326;2023-04-01T02:59:49;22.90;42.70
51613;DHT22;37694;51.748;14.326;2023-04-01T03:02:15;22.90;42.70
51613;DHT22;37694;51.748;14.326;2023-04-01T03:04:41;22.90;42.80
51613;DHT22;37694;51.748;14.326;2023-04-01T03:07:07;22.80;42.70
51613;DHT22;37694;51.748;14.326;2023-04-01T03:09:36;22.80;42.70
51613;DHT22;37694;51.748;14.326;2023-04-01T03:12:01;22.80;42.70
51613;DHT22;37694;51.748;14.326;2023-04-01T03:14:27;22.80;42.70
51613;DHT22;37694;51.748;14.326;2023-04-01T03:16:53;22.80;42.70
51613;DHT22;37694;51.748;14.326;2023-04-01T03:19:18;22.80;42.80
51613;DHT22;37694;51.748;14.326;2023-04-01T03:21:44;22.70;42.60
51613;DHT22;37694;51.748;14.326;2023-04-01T03:24:10;22.80;42.70
51613;DHT22;37694;51.748;14.326;2023-04-01T03:26:36;22.80;42.70
51613;DHT22;37694;51.748;14.326;2023-04-01T03:29:01;22.70;42.80
51613;DHT22;37694;51.748;14.326;2023-04-01T03:31:27;22.70;42.80
51613;DHT22;37694;51.748;14.326;2023-04-01T03:33:52;22.70;42.70
51613;DHT22;37694;51.748;14.326;2023-04-01T03:36:18;22.70;42.80
51613;DHT22;37694;51.748;14.326;2023-04-01T03:38:44;22.70;42.70
51613;DHT22;37694;51.748;14.326;2023-04-01T03:41:17;22.70;43.60
51613;DHT22;37694;51.748;14.326;2023-04-01T03:43:42;22.70;42.80
51613;DHT22;37694;51.748;14.326;2023-04-01T03:46:08;22.70;42.80
51613;DHT22;37694;51.748;14.326;2023-04-01T03:48:34;22.70;42.90
51613;DHT22;37694;51.748;14.326;2023-04-01T03:51:00;22.70;42.80
51613;DHT22;37694;51.748;14.326;2023-04-01T03:53:26;22.70;42.80
51613;DHT22;37694;51.748;14.326;2023-04-01T03:55:52;22.70;42.80
51613;DHT22;37694;51.748;14.326;2023-04-01T03:58:18;22.70;42.70
51613;DHT22;37694;51.748;14.326;2023-04-01T04:00:44;22.70;42.70
51613;DHT22;37694;51.748;14.326;2023-04-01T04:03:09;22.70;42.70
51613;DHT22;37694;51.748;14.326;2023-04-01T04:05:35;22.70;42.70
51613;DHT22;37694;51.748;14.326;2023-04-01T04:08:01;22.70;43.50
51613;DHT22;37694;51.748;14.326;2023-04-01T04:10:27;22.70;42.70
51613;DHT22;37694;51.748;14.326;2023-04-01T04:12:54;22.70;42.80
51613;DHT22;37694;51.748;14.326;2023-04-01T04:15:20;22.70;42.80
51613;DHT22;37694;51.748;14.326;2023-04-01T04:17:46;22.70;42.80
51613;DHT22;37694;51.748;14.326;2023-04-01T04:20:12;22.70;42.70
51613;DHT22;37694;51.748;14.326;2023-04-01T04:22:38;22.70;42.70
51613;DHT22;37694;51.748;14.326;2023-04-01T04:25:04;22.70;42.70
51613;DHT22;37694;51.748;14.326;2023-04-01T04:27:30;22.60;42.70
51613;DHT22;37694;51.748;14.326;2023-04-01T04:29:56;22.60;42.70
51613;DHT22;37694;51.748;14.326;2023-04-01T04:32:21;22.60;42.70
51613;DHT22;37694;51.748;14.326;2023-04-01T04:34:47;22.60;42.70
51613;DHT22;37694;51.748;14.326;2023-04-01T04:37:13;22.60;42.60
51613;DHT22;37694;51.748;14.326;2023-04-01T04:39:38;22.60;42.70
51613;DHT22;37694;51.748;14.326;2023-04-01T04:42:05;22.60;42.70
51613;DHT22;37694;51.748;14.326;2023-04-01T04:44:31;22.60;42.70
51613;DHT22;37694;51.748;14.326;2023-04-01T04:46:56;22.60;42.70
51613;DHT22;37694;51.748;14.326;2023-04-01T04:49:22;22.60;42.80
51613;DHT22;37694;51.748;14.326;2023-04-01T04:51:48;22.60;42.80
51613;DHT22;37694;51.748;14.326;2023-04-01T04:54:13;22.60;42.70
51613;DHT22;37694;51.748;14.326;2023-04-01T04:56:39;22.60;42.80
51613;DHT22;37694;51.748;14.326;2023-04-01T04:59:05;22.60;42.80
51613;DHT22;37694;51.748;14.326;2023-04-01T05:01:31;22.60;42.80
51613;DHT22;37694;51.748;14.326;2023-04-01T05:03:58;22.60;42.70
51613;DHT22;37694;51.748;14.326;2023-04-01T05:06:25;22.60;42.70
51613;DHT22;37694;51.748;14.326;2023-04-01T05:08:51;22.60;42.70
51613;DHT22;37694;51.748;14.326;2023-04-01T05:11:18;22.60;42.70
51613;DHT22;37694;51.748;14.326;2023-04-01T05:13:45;22.60;42.80
51613;DHT22;37694;51.748;14.326;2023-04-01T05:16:13;22.50;42.70
51613;DHT22;37694;51.748;14.326;2023-04-01T05:18:39;22.50;43.00
51613;DHT22;37694;51.748;14.326;2023-04-01T05:21:07;22.50;43.00
51613;DHT22;37694;51.748;14.326;2023-04-01T05:23:33;22.50;43.10
51613;DHT22;37694;51.748;14.326;2023-04-01T05:26:04;22.50;43.50
51613;DHT22;37694;51.748;14.326;2023-04-01T05:28:29;22.50;43.40
51613;DHT22;37694;51.748;14.326;2023-04-01T05:30:58;22.50;43.50
51613;DHT22;37694;51.748;14.326;2023-04-01T05:33:24;22.50;43.50
51613;DHT22;37694;51.748;14.326;2023-04-01T05:35:50;22.50;43.60
51613;DHT22;37694;51.748;14.326;2023-04-01T05:38:16;22.60;43.80
51613;DHT22;37694;51.748;14.326;2023-04-01T05:40:41;22.60;43.80
51613;DHT22;37694;51.748;14.326;2023-04-01T05:43:07;22.60;44.00
51613;DHT22;37694;51.748;14.326;2023-04-01T05:45:34;22.70;44.00
51613;DHT22;37694;51.748;14.326;2023-04-01T05:47:59;22.80;44.00
51613;DHT22;37694;51.748;14.326;2023-04-01T05:50:25;22.80;43.90
51613;DHT22;37694;51.748;14.326;2023-04-01T05:52:51;22.90;44.00
51613;DHT22;37694;51.748;14.326;2023-04-01T05:55:17;23.00;44.10
51613;DHT22;37694;51.748;14.326;2023-04-01T05:57:45;23.10;44.10
51613;DHT22;37694;51.748;14.326;2023-04-01T06:00:11;23.10;44.10
51613;DHT22;37694;51.748;14.326;2023-04-01T06:02:38;23.10;44.00
51613;DHT22;37694;51.748;14.326;2023-04-01T06:05:20;23.20;44.00
51613;DHT22;37694;51.748;14.326;2023-04-01T06:07:47;23.30;44.00
51613;DHT22;37694;51.748;14.326;2023-04-01T06:10:18;23.40;44.10
51613;DHT22;37694;51.748;14.326;2023-04-01T06:13:06;23.40;44.00
51613;DHT22;37694;51.748;14.326;2023-04-01T06:28:49;23.80;43.80
51613;DHT22;37694;51.748;14.326;2023-04-01T06:31:24;23.90;44.10
51613;DHT22;37694;51.748;14.326;2023-04-01T06:36:42;23.90;43.70
51613;DHT22;37694;51.748;14.326;2023-04-01T06:39:25;23.90;43.70
51613;DHT22;37694;51.748;14.326;2023-04-01T06:50:11;24.00;43.80
51613;DHT22;37694;51.748;14.326;2023-04-01T06:57:55;24.00;43.70
51613;DHT22;37694;51.748;14.326;2023-04-01T07:03:26;24.00;43.80
51613;DHT22;37694;51.748;14.326;2023-04-01T07:05:59;24.00;43.60
51613;DHT22;37694;51.748;14.326;2023-04-01T07:08:28;24.00;43.80
51613;DHT22;37694;51.748;14.326;2023-04-01T07:10:58;24.00;43.80
51613;DHT22;37694;51.748;14.326;2023-04-01T07:13:35;24.00;43.80
51613;DHT22;37694;51.748;14.326;2023-04-01T07:16:21;24.00;43.80
51613;DHT22;37694;51.748;14.326;2023-04-01T07:21:49;24.00;44.60
51613;DHT22;37694;51.748;14.326;2023-04-01T07:24:29;23.90;43.60
51613;DHT22;37694;51.748;14.326;2023-04-01T07:26:58;23.90;43.90
51613;DHT22;37694;51.748;14.326;2023-04-01T07:29:25;23.90;44.00
51613;DHT22;37694;51.748;14.326;2023-04-01T07:37:22;24.00;44.60
51613;DHT22;37694;51.748;14.326;2023-04-01T07:54:05;24.00;44.60
51613;DHT22;37694;51.748;14.326;2023-04-01T07:56:47;24.00;44.40
51613;DHT22;37694;51.748;14.326;2023-04-01T08:04:22;24.00;44.90
51613;DHT22;37694;51.748;14.326;2023-04-01T08:09:24;24.00;44.90
51613;DHT22;37694;51.748;14.326;2023-04-01T08:12:07;24.00;44.90
51613;DHT22;37694;51.748;14.326;2023-04-01T08:23:33;24.10;44.80
51613;DHT22;37694;51.748;14.326;2023-04-01T08:34:38;24.10;44.30
51613;DHT22;37694;51.748;14.326;2023-04-01T08:37:12;24.10;44.40
51613;DHT22;37694;51.748;14.326;2023-04-01T08:39:47;24.10;45.10
51613;DHT22;37694;51.748;14.326;2023-04-01T08:45:29;24.20;44.80
51613;DHT22;37694;51.748;14.326;2023-04-01T08:48:23;24.10;44.90
51613;DHT22;37694;51.748;14.326;2023-04-01T08:58:47;24.20;44.70
51613;DHT22;37694;51.748;14.326;2023-04-01T09:04:33;24.20;44.90
51613;DHT22;37694;51.748;14.326;2023-04-01T09:15:33;24.10;43.40
51613;DHT22;37694;51.748;14.326;2023-04-01T09:39:52;23.90;43.20
51613;DHT22;37694;51.748;14.326;2023-04-01T09:45:00;23.90;43.10
51613;DHT22;37694;51.748;14.326;2023-04-01T09:48:00;23.90;43.00
51613;DHT22;37694;51.748;14.326;2023-04-01T09:50:47;23.90;43.10
51613;DHT22;37694;51.748;14.326;2023-04-01T09:56:17;23.90;43.20
51613;DHT22;37694;51.748;14.326;2023-04-01T10:04:27;23.90;43.10
51613;DHT22;37694;51.748;14.326;2023-04-01T10:07:39;23.80;43.10
51613;DHT22;37694;51.748;14.326;2023-04-01T10:21:51;23.80;43.10
51613;DHT22;37694;51.748;14.326;2023-04-01T10:51:37;23.80;43.60
51613;DHT22;37694;51.748;14.326;2023-04-01T10:56:58;23.70;43.80
51613;DHT22;37694;51.748;14.326;2023-04-01T11:32:53;24.00;47.50
51613;DHT22;37694;51.748;14.326;2023-04-01T11:35:32;24.10;47.60
51613;DHT22;37694;51.748;14.326;2023-04-01T11:57:06;24.30;47.30
51613;DHT22;37694;51.748;14.326;2023-04-01T12:20:57;24.50;47.60
51613;DHT22;37694;51.748;14.326;2023-04-01T12:26:21;24.50;47.50
51613;DHT22;37694;51.748;14.326;2023-04-01T12:31:36;24.50;47.00
51613;DHT22;37694;51.748;14.326;2023-04-01T12:37:12;24.50;47.30
51613;DHT22;37694;51.748;14.326;2023-04-01T12:42:57;24.50;46.20
51613;DHT22;37694;51.748;14.326;2023-04-01T12:53:25;24.40;44.10
51613;DHT22;37694;51.748;14.326;2023-04-01T12:56:02;24.30;43.60
51613;DHT22;37694;51.748;14.326;2023-04-01T13:04:02;24.20;43.70
51613;DHT22;37694;51.748;14.326;2023-04-01T13:12:36;24.10;42.70
51613;DHT22;37694;51.748;14.326;2023-04-01T13:15:13;24.00;42.20
51613;DHT22;37694;51.748;14.326;2023-04-01T13:18:05;24.00;42.50
51613;DHT22;37694;51.748;14.326;2023-04-01T13:21:04;23.90;42.20
51613;DHT22;37694;51.748;14.326;2023-04-01T13:29:04;23.70;41.40
51613;DHT22;37694;51.748;14.326;2023-04-01T13:58:42;24.10;44.80
51613;DHT22;37694;51.748;14.326;2023-04-01T14:12:13;24.30;45.90
51613;DHT22;37694;51.748;14.326;2023-04-01T14:32:43;24.50;46.00
51613;DHT22;37694;51.748;14.326;2023-04-01T14:35:35;24.40;45.90
51613;DHT22;37694;51.748;14.326;2023-04-01T14:43:41;24.50;45.60
51613;DHT22;37694;51.748;14.326;2023-04-01T14:49:24;24.50;46.00
51613;DHT22;37694;51.748;14.326;2023-04-01T14:51:56;24.50;45.60
51613;DHT22;37694;51.748;14.326;2023-04-01T14:54:37;24.50;45.90
51613;DHT22;37694;51.748;14.326;2023-04-01T15:00:31;24.60;45.70
51613;DHT22;37694;51.748;14.326;2023-04-01T15:02:56;24.60;45.60
51613;DHT22;37694;51.748;14.326;2023-04-01T15:12:26;24.50;45.90
51613;DHT22;37694;51.748;14.326;2023-04-01T15:30:48;24.60;45.40
51613;DHT22;37694;51.748;14.326;2023-04-01T15:33:40;24.60;45.20
51613;DHT22;37694;51.748;14.326;2023-04-01T15:48:01;24.60;45.20
51613;DHT22;37694;51.748;14.326;2023-04-01T15:56:22;24.60;45.70
51613;DHT22;37694;51.748;14.326;2023-04-01T15:59:19;24.60;45.30
51613;DHT22;37694;51.748;14.326;2023-04-01T16:02:21;24.60;45.10
51613;DHT22;37694;51.748;14.326;2023-04-01T16:08:23;24.60;44.80
51613;DHT22;37694;51.748;14.326;2023-04-01T16:11:17;24.50;44.60
51613;DHT22;37694;51.748;14.326;2023-04-01T16:14:17;24.50;44.40
51613;DHT22;37694;51.748;14.326;2023-04-01T16:17:05;24.50;44.20
51613;DHT22;37694;51.748;14.326;2023-04-01T16:19:40;24.50;44.80
51613;DHT22;37694;51.748;14.326;2023-04-01T16:25:34;24.50;44.80
51613;DHT22;37694;51.748;14.326;2023-04-01T16:30:40;24.50;44.30
51613;DHT22;37694;51.748;14.326;2023-04-01T16:41:57;24.50;44.40
51613;DHT22;37694;51.748;14.326;2023-04-01T16:50:23;24.40;44.50
51613;DHT22;37694;51.748;14.326;2023-04-01T16:53:02;24.40;44.60
51613;DHT22;37694;51.748;14.326;2023-04-01T16:55:54;24.40;44.70
51613;DHT22;37694;51.748;14.326;2023-04-01T16:58:43;24.40;44.50
51613;DHT22;37694;51.748;14.326;2023-04-01T17:01:25;24.40;44.60
51613;DHT22;37694;51.748;14.326;2023-04-01T17:03:58;24.40;44.90
51613;DHT22;37694;51.748;14.326;2023-04-01T17:06:31;24.40;45.10
51613;DHT22;37694;51.748;14.326;2023-04-01T17:09:17;24.40;45.30
51613;DHT22;37694;51.748;14.326;2023-04-01T17:11:49;24.40;45.00
51613;DHT22;37694;51.748;14.326;2023-04-01T17:14:23;24.40;45.30
51613;DHT22;37694;51.748;14.326;2023-04-01T17:30:51;24.50;44.50
51613;DHT22;37694;51.748;14.326;2023-04-01T17:33:35;24.50;44.50
51613;DHT22;37694;51.748;14.326;2023-04-01T17:47:03;24.50;45.20
51613;DHT22;37694;51.748;14.326;2023-04-01T17:52:16;24.50;45.50
51613;DHT22;37694;51.748;14.326;2023-04-01T17:55:24;24.50;45.30
51613;DHT22;37694;51.748;14.326;2023-04-01T17:58:00;24.50;45.40
51613;DHT22;37694;51.748;14.326;2023-04-01T18:00:36;24.50;45.40
51613;DHT22;37694;51.748;14.326;2023-04-01T18:11:44;24.50;44.80
51613;DHT22;37694;51.748;14.326;2023-04-01T18:14:28;24.50;44.80
51613;DHT22;37694;51.748;14.326;2023-04-01T18:17:18;24.40;44.50
51613;DHT22;37694;51.748;14.326;2023-04-01T18:20:24;24.50;44.40
51613;DHT22;37694;51.748;14.326;2023-04-01T18:23:29;24.50;44.70
51613;DHT22;37694;51.748;14.326;2023-04-01T18:26:08;24.40;44.50
51613;DHT22;37694;51.748;14.326;2023-04-01T18:28:48;24.40;44.60
51613;DHT22;37694;51.748;14.326;2023-04-01T18:31:18;24.40;44.50
51613;DHT22;37694;51.748;14.326;2023-04-01T18:34:06;24.40;44.20
51613;DHT22;37694;51.748;14.326;2023-04-01T18:36:55;24.40;44.30
51613;DHT22;37694;51.748;14.326;2023-04-01T18:39:30;24.40;44.20
51613;DHT22;37694;51.748;14.326;2023-04-01T18:45:22;24.30;44.70
51613;DHT22;37694;51.748;14.326;2023-04-01T18:48:16;24.30;44.60
51613;DHT22;37694;51.748;14.326;2023-04-01T18:50:58;24.30;44.70
51613;DHT22;37694;51.748;14.326;2023-04-01T18:53:43;24.30;44.40
51613;DHT22;37694;51.748;14.326;2023-04-01T18:56:30;24.30;44.80
51613;DHT22;37694;51.748;14.326;2023-04-01T19:02:08;24.30;44.70
51613;DHT22;37694;51.748;14.326;2023-04-01T19:04:50;24.30;44.60
51613;DHT22;37694;51.748;14.326;2023-04-01T19:10:11;24.30;44.90
51613;DHT22;37694;51.748;14.326;2023-04-01T19:18:09;24.50;45.30
51613;DHT22;37694;51.748;14.326;2023-04-01T19:20:43;24.50;45.60
51613;DHT22;37694;51.748;14.326;2023-04-01T19:25:58;24.50;46.20
51613;DHT22;37694;51.748;14.326;2023-04-01T19:31:10;24.60;46.40
51613;DHT22;37694;51.748;14.326;2023-04-01T19:34:05;24.60;46.50
51613;DHT22;37694;51.748;14.326;2023-04-01T19:36:50;24.60;46.30
51613;DHT22;37694;51.748;14.326;2023-04-01T19:45:54;24.50;46.80
51613;DHT22;37694;51.748;14.326;2023-04-01T19:51:23;24.50;46.40
51613;DHT22;37694;51.748;14.326;2023-04-01T19:57:00;24.50;47.60
51613;DHT22;37694;51.748;14.326;2023-04-01T19:59:47;24.40;48.10
51613;DHT22;37694;51.748;14.326;2023-04-01T20:05:04;24.40;48.90
51613;DHT22;37694;51.748;14.326;2023-04-01T20:07:46;24.40;48.70
51613;DHT22;37694;51.748;14.326;2023-04-01T20:10:22;24.40;49.30
51613;DHT22;37694;51.748;14.326;2023-04-01T20:15:37;24.40;50.00
51613;DHT22;37694;51.748;14.326;2023-04-01T20:20:55;24.40;50.30
51613;DHT22;37694;51.748;14.326;2023-04-01T20:23:43;24.40;50.40
51613;DHT22;37694;51.748;14.326;2023-04-01T20:26:12;24.40;50.60
51613;DHT22;37694;51.748;14.326;2023-04-01T20:28:47;24.30;50.80
51613;DHT22;37694;51.748;14.326;2023-04-01T20:31:25;24.30;50.80
51613;DHT22;37694;51.748;14.326;2023-04-01T20:36:40;24.30;50.90
51613;DHT22;37694;51.748;14.326;2023-04-01T20:45:19;24.30;51.20
51613;DHT22;37694;51.748;14.326;2023-04-01T20:48:01;24.30;51.10
51613;DHT22;37694;51.748;14.326;2023-04-01T20:51:21;24.30;51.70
51613;DHT22;37694;51.748;14.326;2023-04-01T20:53:28;24.30;50.60
51613;DHT22;37694;51.748;14.326;2023-04-01T21:09:52;24.30;50.20
51613;DHT22;37694;51.748;14.326;2023-04-01T21:12:29;24.30;50.30
51613;DHT22;37694;51.748;14.326;2023-04-01T21:18:03;24.30;50.00
51613;DHT22;37694;51.748;14.326;2023-04-01T21:21:03;24.40;50.00
51613;DHT22;37694;51.748;14.326;2023-04-01T21:23:37;24.30;50.20
51613;DHT22;37694;51.748;14.326;2023-04-01T21:54:07;24.40;51.80
51613;DHT22;37694;51.748;14.326;2023-04-01T22:13:59;24.30;50.80
51613;DHT22;37694;51.748;14.326;2023-04-01T22:16:39;24.30;50.80
51613;DHT22;37694;51.748;14.326;2023-04-01T22:19:16;24.30;50.90
51613;DHT22;37694;51.748;14.326;2023-04-01T22:21:50;24.30;50.80
51613;DHT22;37694;51.748;14.326;2023-04-01T22:32:58;24.20;49.00
51613;DHT22;37694;51.748;14.326;2023-04-01T22:38:57;24.20;48.70
51613;DHT22;37694;51.748;14.326;2023-04-01T22:44:58;24.10;49.20
51613;DHT22;37694;51.748;14.326;2023-04-01T22:49:50;24.10;49.40
51613;DHT22;37694;51.748;14.326;2023-04-01T22:52:32;24.10;49.40
51613;DHT22;37694;51.748;14.326;2023-04-01T22:55:04;24.10;49.80
51613;DHT22;37694;51.748;14.326;2023-04-01T22:57:42;24.00;49.70
51613;DHT22;37694;51.748;14.326;2023-04-01T23:05:18;24.00;50.00
51613;DHT22;37694;51.748;14.326;2023-04-01T23:07:48;24.00;50.20
51613;DHT22;37694;51.748;14.326;2023-04-01T23:13:06;23.90;50.10
51613;DHT22;37694;51.748;14.326;2023-04-01T23:15:37;23.90;50.40
51613;DHT22;37694;51.748;14.326;2023-04-01T23:18:17;23.90;50.20
51613;DHT22;37694;51.748;14.326;2023-04-01T23:23:58;23.90;50.20
51613;DHT22;37694;51.748;14.326;2023-04-01T23:28:58;23.80;50.50
51613;DHT22;37694;51.748;14.326;2023-04-01T23:31:38;23.80;50.50
51613;DHT22;37694;51.748;14.326;2023-04-01T23:36:51;23.70;50.50
51613;DHT22;37694;51.748;14.326;2023-04-01T23:41:47;23.70;50.50
51613;DHT22;37694;51.748;14.326;2023-04-01T23:44:13;23.70;50.50
51613;DHT22;37694;51.748;14.326;2023-04-01T23:46:42;23.70;50.50
51613;DHT22;37694;51.748;14.326;2023-04-01T23:49:40;23.70;50.50
51613;DHT22;37694;51.748;14.326;2023-04-01T23:54:50;23.70;50.50
51613;DHT22;37694;51.748;14.326;2023-04-01T23:57:31;23.60;50.40
